sensor_id;sensor_type;location;lat;lon;timestamp;P1;durP1;ratioP1;P2;durP2;ratioP2
36923;SDS011;22841;50.252;18.688;2024-03-02T00:00:21;144.57;;;72.32;;
36923;SDS011;22841;50.252;18.688;2024-03-02T00:02:48;153.73;;;73.90;;
36923;SDS011;22841;50.252;18.688;2024-03-02T00:05:16;155.23;;;74.65;;
36923;SDS011;22841;50.252;18.688;2024-03-02T00:08:02;151.93;;;74.78;;
36923;SDS011;22841;50.252;18.688;2024-03-02T00:10:35;161.73;;;81.47;;
36923;SDS011;22841;50.252;18.688;2024-03-02T00:13:05;154.00;;;78.30;;
36923;SDS011;22841;50.252;18.688;2024-03-02T00:18:12;162.82;;;76.35;;
36923;SDS011;22841;50.252;18.688;2024-03-02T00:20:46;155.52;;;74.30;;
36923;SDS011;22841;50.252;18.688;2024-03-02T00:23:16;162.38;;;77.78;;
36923;SDS011;22841;50.252;18.688;2024-03-02T00:25:44;153.63;;;78.07;;
36923;SDS011;22841;50.252;18.688;2024-03-02T00:28:28;150.60;;;71.00;;
36923;SDS011;22841;50.252;18.688;2024-03-02T00:31:05;152.20;;;74.80;;
36923;SDS011;22841;50.252;18.688;2024-03-02T00:33:42;154.90;;;72.03;;
36923;SDS011;22841;50.252;18.688;2024-03-02T00:36:09;150.40;;;71.95;;
36923;SDS011;22841;50.252;18.688;2024-03-02T00:38:42;147.98;;;70.28;;
36923;SDS011;22841;50.252;18.688;2024-03-02T00:41:15;154.40;;;73.50;;
36923;SDS011;22841;50.252;18.688;2024-03-02T00:46:17;149.25;;;73.20;;
36923;SDS011;22841;50.252;18.688;2024-03-02T00:48:48;138.07;;;69.95;;
36923;SDS011;22841;50.252;18.688;2024-03-02T00:51:20;152.40;;;72.22;;
36923;SDS011;22841;50.252;18.688;2024-03-02T00:53:47;138.00;;;70.28;;
36923;SDS011;22841;50.252;18.688;2024-03-02T00:56:14;160.40;;;73.55;;
36923;SDS011;22841;50.252;18.688;2024-03-02T00:58:40;151.43;;;72.00;;
36923;SDS011;22841;50.252;18.688;2024-03-02T01:01:06;148.38;;;73.22;;
36923;SDS011;22841;50.252;18.688;2024-03-02T01:03:33;147.05;;;72.07;;
36923;SDS011;22841;50.252;18.688;2024-03-02T01:05:59;160.88;;;73.40;;
36923;SDS011;22841;50.252;18.688;2024-03-02T01:08:25;143.52;;;70.72;;
36923;SDS011;22841;50.252;18.688;2024-03-02T01:10:52;147.63;;;70.80;;
36923;SDS011;22841;50.252;18.688;2024-03-02T01:13:18;143.52;;;67.85;;
36923;SDS011;22841;50.252;18.688;2024-03-02T01:15:44;144.57;;;72.22;;
36923;SDS011;22841;50.252;18.688;2024-03-02T01:18:10;148.07;;;69.85;;
36923;SDS011;22841;50.252;18.688;2024-03-02T01:20:36;142.68;;;69.63;;
36923;SDS011;22841;50.252;18.688;2024-03-02T01:23:02;132.23;;;64.93;;
36923;SDS011;22841;50.252;18.688;2024-03-02T01:25:28;131.95;;;67.65;;
36923;SDS011;22841;50.252;18.688;2024-03-02T01:27:54;122.47;;;63.45;;
36923;SDS011;22841;50.252;18.688;2024-03-02T01:30:20;131.25;;;62.88;;
36923;SDS011;22841;50.252;18.688;2024-03-02T01:32:47;142.68;;;66.93;;
36923;SDS011;22841;50.252;18.688;2024-03-02T01:35:13;129.60;;;64.88;;
36923;SDS011;22841;50.252;18.688;2024-03-02T01:37:40;141.02;;;64.65;;
36923;SDS011;22841;50.252;18.688;2024-03-02T01:40:07;125.53;;;63.28;;
36923;SDS011;22841;50.252;18.688;2024-03-02T01:42:35;133.52;;;63.50;;
36923;SDS011;22841;50.252;18.688;2024-03-02T01:45:03;132.55;;;62.75;;
36923;SDS011;22841;50.252;18.688;2024-03-02T01:47:30;126.65;;;64.80;;
36923;SDS011;22841;50.252;18.688;2024-03-02T01:49:58;130.85;;;64.75;;
36923;SDS011;22841;50.252;18.688;2024-03-02T01:52:24;129.88;;;64.05;;
36923;SDS011;22841;50.252;18.688;2024-03-02T01:54:50;117.05;;;60.08;;
36923;SDS011;22841;50.252;18.688;2024-03-02T01:57:17;126.55;;;64.03;;
36923;SDS011;22841;50.252;18.688;2024-03-02T01:59:43;116.43;;;60.67;;
36923;SDS011;22841;50.252;18.688;2024-03-02T02:02:10;124.38;;;63.20;;
36923;SDS011;22841;50.252;18.688;2024-03-02T02:04:36;116.00;;;59.10;;
36923;SDS011;22841;50.252;18.688;2024-03-02T02:07:02;124.70;;;57.20;;
36923;SDS011;22841;50.252;18.688;2024-03-02T02:09:29;129.00;;;60.08;;
36923;SDS011;22841;50.252;18.688;2024-03-02T02:11:55;113.07;;;59.78;;
36923;SDS011;22841;50.252;18.688;2024-03-02T02:14:21;113.65;;;59.60;;
36923;SDS011;22841;50.252;18.688;2024-03-02T02:16:47;116.32;;;57.13;;
36923;SDS011;22841;50.252;18.688;2024-03-02T02:19:13;114.88;;;58.88;;
36923;SDS011;22841;50.252;18.688;2024-03-02T02:21:42;113.78;;;54.97;;
36923;SDS011;22841;50.252;18.688;2024-03-02T02:24:08;109.45;;;55.47;;
36923;SDS011;22841;50.252;18.688;2024-03-02T02:26:34;104.80;;;55.70;;
36923;SDS011;22841;50.252;18.688;2024-03-02T02:29:00;116.72;;;58.35;;
36923;SDS011;22841;50.252;18.688;2024-03-02T02:31:26;108.70;;;54.78;;
36923;SDS011;22841;50.252;18.688;2024-03-02T02:34:01;108.50;;;55.42;;
36923;SDS011;22841;50.252;18.688;2024-03-02T02:36:27;105.63;;;55.53;;
36923;SDS011;22841;50.252;18.688;2024-03-02T02:38:54;105.20;;;54.88;;
36923;SDS011;22841;50.252;18.688;2024-03-02T02:41:20;106.50;;;53.47;;
36923;SDS011;22841;50.252;18.688;2024-03-02T02:43:46;102.85;;;53.15;;
36923;SDS011;22841;50.252;18.688;2024-03-02T02:46:12;104.45;;;53.17;;
36923;SDS011;22841;50.252;18.688;2024-03-02T02:48:38;99.63;;;53.30;;
36923;SDS011;22841;50.252;18.688;2024-03-02T02:51:05;105.18;;;54.92;;
36923;SDS011;22841;50.252;18.688;2024-03-02T02:53:31;107.13;;;53.03;;
36923;SDS011;22841;50.252;18.688;2024-03-02T02:55:57;102.53;;;52.75;;
36923;SDS011;22841;50.252;18.688;2024-03-02T02:58:23;101.15;;;53.42;;
36923;SDS011;22841;50.252;18.688;2024-03-02T03:00:49;105.47;;;52.58;;
36923;SDS011;22841;50.252;18.688;2024-03-02T03:03:15;111.75;;;53.67;;
36923;SDS011;22841;50.252;18.688;2024-03-02T03:05:42;106.22;;;53.88;;
36923;SDS011;22841;50.252;18.688;2024-03-02T03:08:08;94.72;;;49.60;;
36923;SDS011;22841;50.252;18.688;2024-03-02T03:10:34;103.03;;;53.20;;
36923;SDS011;22841;50.252;18.688;2024-03-02T03:13:00;100.68;;;53.30;;
36923;SDS011;22841;50.252;18.688;2024-03-02T03:15:26;105.00;;;52.53;;
36923;SDS011;22841;50.252;18.688;2024-03-02T03:17:52;102.60;;;52.05;;
36923;SDS011;22841;50.252;18.688;2024-03-02T03:20:18;92.90;;;51.58;;
36923;SDS011;22841;50.252;18.688;2024-03-02T03:22:46;99.35;;;49.28;;
36923;SDS011;22841;50.252;18.688;2024-03-02T03:25:13;95.20;;;48.88;;
36923;SDS011;22841;50.252;18.688;2024-03-02T03:27:39;93.43;;;50.15;;
36923;SDS011;22841;50.252;18.688;2024-03-02T03:30:05;96.90;;;51.28;;
36923;SDS011;22841;50.252;18.688;2024-03-02T03:32:31;98.78;;;51.58;;
36923;SDS011;22841;50.252;18.688;2024-03-02T03:34:57;87.25;;;49.55;;
36923;SDS011;22841;50.252;18.688;2024-03-02T03:37:24;94.70;;;48.28;;
36923;SDS011;22841;50.252;18.688;2024-03-02T03:39:52;92.82;;;50.67;;
36923;SDS011;22841;50.252;18.688;2024-03-02T03:42:18;90.18;;;49.38;;
36923;SDS011;22841;50.252;18.688;2024-03-02T03:44:44;90.82;;;48.13;;
36923;SDS011;22841;50.252;18.688;2024-03-02T03:47:10;88.78;;;48.75;;
36923;SDS011;22841;50.252;18.688;2024-03-02T03:49:37;83.88;;;46.60;;
36923;SDS011;22841;50.252;18.688;2024-03-02T03:52:03;85.68;;;48.45;;
36923;SDS011;22841;50.252;18.688;2024-03-02T03:54:29;88.95;;;47.00;;
36923;SDS011;22841;50.252;18.688;2024-03-02T03:56:55;92.57;;;48.50;;
36923;SDS011;22841;50.252;18.688;2024-03-02T03:59:21;87.82;;;46.50;;
36923;SDS011;22841;50.252;18.688;2024-03-02T04:01:47;98.20;;;48.65;;
36923;SDS011;22841;50.252;18.688;2024-03-02T04:04:14;85.35;;;48.13;;
36923;SDS011;22841;50.252;18.688;2024-03-02T04:06:40;90.60;;;49.08;;
36923;SDS011;22841;50.252;18.688;2024-03-02T04:09:06;86.72;;;47.88;;
36923;SDS011;22841;50.252;18.688;2024-03-02T04:11:32;84.60;;;46.00;;
36923;SDS011;22841;50.252;18.688;2024-03-02T04:13:58;91.03;;;46.78;;
36923;SDS011;22841;50.252;18.688;2024-03-02T04:16:24;94.63;;;46.70;;
36923;SDS011;22841;50.252;18.688;2024-03-02T04:18:50;82.47;;;44.33;;
36923;SDS011;22841;50.252;18.688;2024-03-02T04:21:17;91.13;;;45.72;;
36923;SDS011;22841;50.252;18.688;2024-03-02T04:23:43;87.95;;;46.25;;
36923;SDS011;22841;50.252;18.688;2024-03-02T04:26:09;84.10;;;45.50;;
36923;SDS011;22841;50.252;18.688;2024-03-02T04:28:35;94.75;;;47.35;;
36923;SDS011;22841;50.252;18.688;2024-03-02T04:31:01;98.55;;;48.53;;
36923;SDS011;22841;50.252;18.688;2024-03-02T04:33:27;92.10;;;48.63;;
36923;SDS011;22841;50.252;18.688;2024-03-02T04:35:53;88.38;;;47.03;;
36923;SDS011;22841;50.252;18.688;2024-03-02T04:38:19;79.00;;;44.38;;
36923;SDS011;22841;50.252;18.688;2024-03-02T04:40:45;88.22;;;46.33;;
36923;SDS011;22841;50.252;18.688;2024-03-02T04:43:11;80.07;;;44.63;;
36923;SDS011;22841;50.252;18.688;2024-03-02T04:45:41;89.97;;;48.85;;
36923;SDS011;22841;50.252;18.688;2024-03-02T04:48:08;95.95;;;47.65;;
36923;SDS011;22841;50.252;18.688;2024-03-02T04:50:34;87.07;;;48.08;;
36923;SDS011;22841;50.252;18.688;2024-03-02T04:53:00;77.55;;;44.30;;
36923;SDS011;22841;50.252;18.688;2024-03-02T04:55:26;79.57;;;44.80;;
36923;SDS011;22841;50.252;18.688;2024-03-02T04:58:15;81.63;;;46.05;;
36923;SDS011;22841;50.252;18.688;2024-03-02T05:00:41;87.90;;;46.33;;
36923;SDS011;22841;50.252;18.688;2024-03-02T05:03:08;87.78;;;47.33;;
36923;SDS011;22841;50.252;18.688;2024-03-02T05:05:34;90.20;;;49.20;;
36923;SDS011;22841;50.252;18.688;2024-03-02T05:08:00;86.55;;;47.70;;
36923;SDS011;22841;50.252;18.688;2024-03-02T05:10:26;92.63;;;50.85;;
36923;SDS011;22841;50.252;18.688;2024-03-02T05:12:52;85.57;;;46.10;;
36923;SDS011;22841;50.252;18.688;2024-03-02T05:15:25;85.20;;;47.95;;
36923;SDS011;22841;50.252;18.688;2024-03-02T05:17:51;97.82;;;48.70;;
36923;SDS011;22841;50.252;18.688;2024-03-02T05:20:17;89.10;;;49.20;;
36923;SDS011;22841;50.252;18.688;2024-03-02T05:22:43;99.75;;;50.92;;
36923;SDS011;22841;50.252;18.688;2024-03-02T05:25:09;89.35;;;47.20;;
36923;SDS011;22841;50.252;18.688;2024-03-02T05:27:36;83.45;;;45.88;;
36923;SDS011;22841;50.252;18.688;2024-03-02T05:30:02;86.85;;;48.97;;
36923;SDS011;22841;50.252;18.688;2024-03-02T05:32:29;99.78;;;53.83;;
36923;SDS011;22841;50.252;18.688;2024-03-02T05:34:55;96.18;;;52.83;;
36923;SDS011;22841;50.252;18.688;2024-03-02T05:37:21;89.97;;;47.55;;
36923;SDS011;22841;50.252;18.688;2024-03-02T05:39:47;96.75;;;51.13;;
36923;SDS011;22841;50.252;18.688;2024-03-02T05:42:13;87.63;;;48.25;;
36923;SDS011;22841;50.252;18.688;2024-03-02T05:44:40;87.22;;;48.80;;
36923;SDS011;22841;50.252;18.688;2024-03-02T05:47:06;81.40;;;45.20;;
36923;SDS011;22841;50.252;18.688;2024-03-02T05:49:34;89.80;;;47.47;;
36923;SDS011;22841;50.252;18.688;2024-03-02T05:52:00;91.57;;;47.83;;
36923;SDS011;22841;50.252;18.688;2024-03-02T05:54:26;85.80;;;45.30;;
36923;SDS011;22841;50.252;18.688;2024-03-02T05:56:53;83.07;;;44.38;;
36923;SDS011;22841;50.252;18.688;2024-03-02T05:59:19;89.82;;;47.60;;
36923;SDS011;22841;50.252;18.688;2024-03-02T06:01:45;91.00;;;47.35;;
36923;SDS011;22841;50.252;18.688;2024-03-02T06:04:12;93.38;;;48.55;;
36923;SDS011;22841;50.252;18.688;2024-03-02T06:06:39;91.07;;;47.00;;
36923;SDS011;22841;50.252;18.688;2024-03-02T06:09:06;97.10;;;50.33;;
36923;SDS011;22841;50.252;18.688;2024-03-02T06:11:39;89.68;;;43.85;;
36923;SDS011;22841;50.252;18.688;2024-03-02T06:14:06;90.07;;;45.80;;
36923;SDS011;22841;50.252;18.688;2024-03-02T06:16:33;86.55;;;45.10;;
36923;SDS011;22841;50.252;18.688;2024-03-02T06:19:00;87.75;;;46.58;;
36923;SDS011;22841;50.252;18.688;2024-03-02T06:21:27;89.32;;;45.53;;
36923;SDS011;22841;50.252;18.688;2024-03-02T06:23:53;86.15;;;45.40;;
36923;SDS011;22841;50.252;18.688;2024-03-02T06:26:20;91.35;;;46.22;;
36923;SDS011;22841;50.252;18.688;2024-03-02T06:28:46;99.57;;;46.78;;
36923;SDS011;22841;50.252;18.688;2024-03-02T06:31:12;91.97;;;44.55;;
36923;SDS011;22841;50.252;18.688;2024-03-02T06:33:38;91.32;;;46.58;;
36923;SDS011;22841;50.252;18.688;2024-03-02T06:36:05;95.25;;;48.58;;
36923;SDS011;22841;50.252;18.688;2024-03-02T06:38:35;92.97;;;48.40;;
36923;SDS011;22841;50.252;18.688;2024-03-02T06:41:01;92.63;;;49.60;;
36923;SDS011;22841;50.252;18.688;2024-03-02T06:43:27;97.57;;;49.05;;
36923;SDS011;22841;50.252;18.688;2024-03-02T06:45:53;100.53;;;50.40;;
36923;SDS011;22841;50.252;18.688;2024-03-02T06:48:19;92.78;;;49.70;;
36923;SDS011;22841;50.252;18.688;2024-03-02T06:50:46;102.60;;;50.50;;
36923;SDS011;22841;50.252;18.688;2024-03-02T06:53:13;99.00;;;51.75;;
36923;SDS011;22841;50.252;18.688;2024-03-02T06:55:43;96.18;;;51.55;;
36923;SDS011;22841;50.252;18.688;2024-03-02T06:58:13;98.53;;;54.40;;
36923;SDS011;22841;50.252;18.688;2024-03-02T07:00:42;94.43;;;50.92;;
36923;SDS011;22841;50.252;18.688;2024-03-02T07:03:09;105.00;;;53.42;;
36923;SDS011;22841;50.252;18.688;2024-03-02T07:05:35;104.85;;;53.45;;
36923;SDS011;22841;50.252;18.688;2024-03-02T07:08:01;115.38;;;55.28;;
36923;SDS011;22841;50.252;18.688;2024-03-02T07:10:29;100.75;;;53.58;;
36923;SDS011;22841;50.252;18.688;2024-03-02T07:12:55;103.28;;;52.17;;
36923;SDS011;22841;50.252;18.688;2024-03-02T07:15:21;100.63;;;52.35;;
36923;SDS011;22841;50.252;18.688;2024-03-02T07:17:52;101.82;;;52.72;;
36923;SDS011;22841;50.252;18.688;2024-03-02T07:20:18;86.32;;;50.42;;
36923;SDS011;22841;50.252;18.688;2024-03-02T07:22:45;101.25;;;53.45;;
36923;SDS011;22841;50.252;18.688;2024-03-02T07:25:11;99.38;;;51.47;;
36923;SDS011;22841;50.252;18.688;2024-03-02T07:27:38;97.45;;;50.97;;
36923;SDS011;22841;50.252;18.688;2024-03-02T07:30:05;105.32;;;51.40;;
36923;SDS011;22841;50.252;18.688;2024-03-02T07:32:32;103.60;;;51.83;;
36923;SDS011;22841;50.252;18.688;2024-03-02T07:34:58;103.03;;;52.25;;
36923;SDS011;22841;50.252;18.688;2024-03-02T07:37:24;94.30;;;51.92;;
36923;SDS011;22841;50.252;18.688;2024-03-02T07:39:50;98.05;;;50.88;;
36923;SDS011;22841;50.252;18.688;2024-03-02T07:42:17;96.82;;;50.78;;
36923;SDS011;22841;50.252;18.688;2024-03-02T07:44:44;98.88;;;52.90;;
36923;SDS011;22841;50.252;18.688;2024-03-02T07:47:10;115.22;;;55.17;;
36923;SDS011;22841;50.252;18.688;2024-03-02T07:49:37;95.88;;;51.28;;
36923;SDS011;22841;50.252;18.688;2024-03-02T07:52:03;91.65;;;50.88;;
36923;SDS011;22841;50.252;18.688;2024-03-02T07:54:29;106.72;;;54.20;;
36923;SDS011;22841;50.252;18.688;2024-03-02T07:56:55;94.03;;;53.08;;
36923;SDS011;22841;50.252;18.688;2024-03-02T07:59:21;97.43;;;51.58;;
36923;SDS011;22841;50.252;18.688;2024-03-02T08:01:48;105.90;;;54.55;;
36923;SDS011;22841;50.252;18.688;2024-03-02T08:04:16;113.97;;;55.38;;
36923;SDS011;22841;50.252;18.688;2024-03-02T08:06:42;115.95;;;62.15;;
36923;SDS011;22841;50.252;18.688;2024-03-02T08:09:08;129.25;;;66.35;;
36923;SDS011;22841;50.252;18.688;2024-03-02T08:11:37;105.47;;;60.05;;
36923;SDS011;22841;50.252;18.688;2024-03-02T08:14:04;99.88;;;51.33;;
36923;SDS011;22841;50.252;18.688;2024-03-02T08:16:30;92.18;;;49.83;;
36923;SDS011;22841;50.252;18.688;2024-03-02T08:18:56;95.65;;;51.40;;
36923;SDS011;22841;50.252;18.688;2024-03-02T08:21:23;105.15;;;50.50;;
36923;SDS011;22841;50.252;18.688;2024-03-02T08:23:50;95.80;;;50.03;;
36923;SDS011;22841;50.252;18.688;2024-03-02T08:26:17;99.25;;;49.85;;
36923;SDS011;22841;50.252;18.688;2024-03-02T08:28:43;97.57;;;49.42;;
36923;SDS011;22841;50.252;18.688;2024-03-02T08:31:09;97.68;;;52.25;;
36923;SDS011;22841;50.252;18.688;2024-03-02T08:33:35;99.40;;;53.00;;
36923;SDS011;22841;50.252;18.688;2024-03-02T08:36:01;94.43;;;50.90;;
36923;SDS011;22841;50.252;18.688;2024-03-02T08:38:28;92.38;;;51.53;;
36923;SDS011;22841;50.252;18.688;2024-03-02T08:40:54;96.20;;;50.42;;
36923;SDS011;22841;50.252;18.688;2024-03-02T08:43:21;97.68;;;51.75;;
36923;SDS011;22841;50.252;18.688;2024-03-02T08:45:48;97.70;;;52.53;;
36923;SDS011;22841;50.252;18.688;2024-03-02T08:48:14;101.80;;;54.50;;
36923;SDS011;22841;50.252;18.688;2024-03-02T08:50:40;99.85;;;54.42;;
36923;SDS011;22841;50.252;18.688;2024-03-02T08:53:06;102.25;;;54.50;;
36923;SDS011;22841;50.252;18.688;2024-03-02T08:55:32;105.05;;;54.70;;
36923;SDS011;22841;50.252;18.688;2024-03-02T08:57:59;103.55;;;55.17;;
36923;SDS011;22841;50.252;18.688;2024-03-02T09:00:25;99.03;;;53.38;;
36923;SDS011;22841;50.252;18.688;2024-03-02T09:02:51;99.05;;;53.28;;
36923;SDS011;22841;50.252;18.688;2024-03-02T09:05:20;105.18;;;54.67;;
36923;SDS011;22841;50.252;18.688;2024-03-02T09:07:46;106.88;;;57.17;;
36923;SDS011;22841;50.252;18.688;2024-03-02T09:10:12;103.68;;;56.25;;
36923;SDS011;22841;50.252;18.688;2024-03-02T09:12:38;108.03;;;54.97;;
36923;SDS011;22841;50.252;18.688;2024-03-02T09:15:05;107.35;;;56.95;;
36923;SDS011;22841;50.252;18.688;2024-03-02T09:17:31;107.20;;;56.75;;
36923;SDS011;22841;50.252;18.688;2024-03-02T09:19:57;109.47;;;57.85;;
36923;SDS011;22841;50.252;18.688;2024-03-02T09:22:23;97.72;;;52.63;;
36923;SDS011;22841;50.252;18.688;2024-03-02T09:24:49;100.45;;;52.33;;
36923;SDS011;22841;50.252;18.688;2024-03-02T09:27:16;106.22;;;57.30;;
36923;SDS011;22841;50.252;18.688;2024-03-02T09:29:42;110.68;;;54.40;;
36923;SDS011;22841;50.252;18.688;2024-03-02T09:32:08;107.45;;;56.13;;
36923;SDS011;22841;50.252;18.688;2024-03-02T09:34:38;113.10;;;57.22;;
36923;SDS011;22841;50.252;18.688;2024-03-02T09:37:05;107.72;;;57.30;;
36923;SDS011;22841;50.252;18.688;2024-03-02T09:39:31;105.78;;;52.88;;
36923;SDS011;22841;50.252;18.688;2024-03-02T09:41:57;100.57;;;54.53;;
36923;SDS011;22841;50.252;18.688;2024-03-02T09:44:24;95.05;;;50.40;;
36923;SDS011;22841;50.252;18.688;2024-03-02T09:46:51;92.03;;;49.28;;
36923;SDS011;22841;50.252;18.688;2024-03-02T09:49:18;97.65;;;50.75;;
36923;SDS011;22841;50.252;18.688;2024-03-02T09:51:46;85.38;;;48.63;;
36923;SDS011;22841;50.252;18.688;2024-03-02T09:54:13;89.80;;;47.28;;
36923;SDS011;22841;50.252;18.688;2024-03-02T09:56:39;93.88;;;48.53;;
36923;SDS011;22841;50.252;18.688;2024-03-02T09:59:05;88.93;;;45.10;;
36923;SDS011;22841;50.252;18.688;2024-03-02T10:01:31;86.32;;;45.50;;
36923;SDS011;22841;50.252;18.688;2024-03-02T10:04:01;80.95;;;43.75;;
36923;SDS011;22841;50.252;18.688;2024-03-02T10:06:30;82.15;;;44.60;;
36923;SDS011;22841;50.252;18.688;2024-03-02T10:08:56;84.55;;;44.38;;
36923;SDS011;22841;50.252;18.688;2024-03-02T10:11:26;86.10;;;45.10;;
36923;SDS011;22841;50.252;18.688;2024-03-02T10:14:05;85.95;;;45.55;;
36923;SDS011;22841;50.252;18.688;2024-03-02T10:16:36;80.70;;;42.53;;
36923;SDS011;22841;50.252;18.688;2024-03-02T10:19:16;80.20;;;44.78;;
36923;SDS011;22841;50.252;18.688;2024-03-02T10:21:44;81.95;;;43.42;;
36923;SDS011;22841;50.252;18.688;2024-03-02T10:24:11;86.93;;;45.78;;
36923;SDS011;22841;50.252;18.688;2024-03-02T10:26:38;82.97;;;45.55;;
36923;SDS011;22841;50.252;18.688;2024-03-02T10:29:04;79.75;;;43.85;;
36923;SDS011;22841;50.252;18.688;2024-03-02T10:31:30;78.55;;;45.22;;
36923;SDS011;22841;50.252;18.688;2024-03-02T10:33:57;76.57;;;42.83;;
36923;SDS011;22841;50.252;18.688;2024-03-02T10:36:23;75.60;;;42.28;;
36923;SDS011;22841;50.252;18.688;2024-03-02T10:38:51;71.53;;;41.67;;
36923;SDS011;22841;50.252;18.688;2024-03-02T10:41:23;73.78;;;42.40;;
36923;SDS011;22841;50.252;18.688;2024-03-02T10:43:52;77.90;;;40.70;;
36923;SDS011;22841;50.252;18.688;2024-03-02T10:46:28;81.88;;;42.33;;
36923;SDS011;22841;50.252;18.688;2024-03-02T10:48:59;82.32;;;42.78;;
36923;SDS011;22841;50.252;18.688;2024-03-02T10:51:26;71.53;;;41.00;;
36923;SDS011;22841;50.252;18.688;2024-03-02T10:53:57;79.65;;;39.95;;
36923;SDS011;22841;50.252;18.688;2024-03-02T10:59:03;73.07;;;41.00;;
36923;SDS011;22841;50.252;18.688;2024-03-02T11:01:29;77.60;;;41.80;;
36923;SDS011;22841;50.252;18.688;2024-03-02T11:03:58;75.45;;;40.75;;
36923;SDS011;22841;50.252;18.688;2024-03-02T11:06:26;81.00;;;44.25;;
36923;SDS011;22841;50.252;18.688;2024-03-02T11:08:54;83.32;;;45.83;;
36923;SDS011;22841;50.252;18.688;2024-03-02T11:11:28;77.55;;;45.83;;
36923;SDS011;22841;50.252;18.688;2024-03-02T11:13:57;85.30;;;45.70;;
36923;SDS011;22841;50.252;18.688;2024-03-02T11:16:34;85.70;;;46.83;;
36923;SDS011;22841;50.252;18.688;2024-03-02T11:19:11;88.78;;;47.38;;
36923;SDS011;22841;50.252;18.688;2024-03-02T11:21:38;82.75;;;45.63;;
36923;SDS011;22841;50.252;18.688;2024-03-02T11:27:01;84.32;;;47.78;;
36923;SDS011;22841;50.252;18.688;2024-03-02T11:32:17;82.10;;;46.17;;
36923;SDS011;22841;50.252;18.688;2024-03-02T11:34:47;81.53;;;44.60;;
36923;SDS011;22841;50.252;18.688;2024-03-02T11:37:16;90.03;;;46.55;;
36923;SDS011;22841;50.252;18.688;2024-03-02T11:39:43;84.07;;;45.53;;
36923;SDS011;22841;50.252;18.688;2024-03-02T11:42:11;76.43;;;41.58;;
36923;SDS011;22841;50.252;18.688;2024-03-02T11:44:40;83.25;;;45.22;;
36923;SDS011;22841;50.252;18.688;2024-03-02T11:47:14;77.38;;;43.50;;
36923;SDS011;22841;50.252;18.688;2024-03-02T11:49:42;77.15;;;44.05;;
36923;SDS011;22841;50.252;18.688;2024-03-02T11:52:12;74.30;;;44.22;;
36923;SDS011;22841;50.252;18.688;2024-03-02T11:54:41;75.10;;;41.47;;
36923;SDS011;22841;50.252;18.688;2024-03-02T11:57:17;67.85;;;40.75;;
36923;SDS011;22841;50.252;18.688;2024-03-02T11:59:45;76.45;;;40.30;;
36923;SDS011;22841;50.252;18.688;2024-03-02T12:02:15;74.38;;;39.90;;
36923;SDS011;22841;50.252;18.688;2024-03-02T12:04:42;69.28;;;40.05;;
36923;SDS011;22841;50.252;18.688;2024-03-02T12:07:10;76.63;;;41.17;;
36923;SDS011;22841;50.252;18.688;2024-03-02T12:09:38;73.72;;;40.50;;
36923;SDS011;22841;50.252;18.688;2024-03-02T12:12:05;66.63;;;38.90;;
36923;SDS011;22841;50.252;18.688;2024-03-02T12:14:35;73.85;;;40.35;;
36923;SDS011;22841;50.252;18.688;2024-03-02T12:17:03;70.95;;;39.15;;
36923;SDS011;22841;50.252;18.688;2024-03-02T12:19:31;74.57;;;41.38;;
36923;SDS011;22841;50.252;18.688;2024-03-02T12:21:58;72.10;;;39.85;;
36923;SDS011;22841;50.252;18.688;2024-03-02T12:24:29;75.68;;;39.65;;
36923;SDS011;22841;50.252;18.688;2024-03-02T12:26:55;55.53;;;29.65;;
36923;SDS011;22841;50.252;18.688;2024-03-02T12:29:22;44.88;;;22.13;;
36923;SDS011;22841;50.252;18.688;2024-03-02T12:31:50;38.95;;;21.55;;
36923;SDS011;22841;50.252;18.688;2024-03-02T12:34:20;33.42;;;16.13;;
36923;SDS011;22841;50.252;18.688;2024-03-02T12:36:47;28.92;;;15.18;;
36923;SDS011;22841;50.252;18.688;2024-03-02T12:39:18;27.80;;;13.57;;
36923;SDS011;22841;50.252;18.688;2024-03-02T12:41:48;24.55;;;12.05;;
36923;SDS011;22841;50.252;18.688;2024-03-02T12:44:19;23.47;;;12.47;;
36923;SDS011;22841;50.252;18.688;2024-03-02T12:46:45;19.05;;;11.63;;
36923;SDS011;22841;50.252;18.688;2024-03-02T12:49:13;18.45;;;12.38;;
36923;SDS011;22841;50.252;18.688;2024-03-02T12:51:46;24.45;;;13.43;;
36923;SDS011;22841;50.252;18.688;2024-03-02T12:54:17;25.23;;;12.75;;
36923;SDS011;22841;50.252;18.688;2024-03-02T12:56:43;21.08;;;12.43;;
36923;SDS011;22841;50.252;18.688;2024-03-02T12:59:22;26.35;;;13.60;;
36923;SDS011;22841;50.252;18.688;2024-03-02T13:01:55;23.98;;;13.45;;
36923;SDS011;22841;50.252;18.688;2024-03-02T13:04:25;24.15;;;13.20;;
36923;SDS011;22841;50.252;18.688;2024-03-02T13:06:52;29.30;;;15.55;;
36923;SDS011;22841;50.252;18.688;2024-03-02T13:09:18;27.40;;;15.85;;
36923;SDS011;22841;50.252;18.688;2024-03-02T13:11:45;30.00;;;17.73;;
36923;SDS011;22841;50.252;18.688;2024-03-02T13:14:11;32.33;;;18.48;;
36923;SDS011;22841;50.252;18.688;2024-03-02T13:16:40;29.17;;;17.00;;
36923;SDS011;22841;50.252;18.688;2024-03-02T13:19:13;26.75;;;15.10;;
36923;SDS011;22841;50.252;18.688;2024-03-02T13:21:39;29.40;;;17.92;;
36923;SDS011;22841;50.252;18.688;2024-03-02T13:24:06;36.97;;;20.08;;
36923;SDS011;22841;50.252;18.688;2024-03-02T13:26:32;39.30;;;20.83;;
36923;SDS011;22841;50.252;18.688;2024-03-02T13:28:58;36.83;;;21.98;;
36923;SDS011;22841;50.252;18.688;2024-03-02T13:31:24;44.75;;;22.92;;
36923;SDS011;22841;50.252;18.688;2024-03-02T13:33:50;39.97;;;23.20;;
36923;SDS011;22841;50.252;18.688;2024-03-02T13:36:16;42.10;;;23.55;;
36923;SDS011;22841;50.252;18.688;2024-03-02T13:38:43;50.35;;;28.10;;
36923;SDS011;22841;50.252;18.688;2024-03-02T13:41:09;49.08;;;28.67;;
36923;SDS011;22841;50.252;18.688;2024-03-02T13:43:37;45.17;;;26.80;;
36923;SDS011;22841;50.252;18.688;2024-03-02T13:46:04;50.20;;;27.88;;
36923;SDS011;22841;50.252;18.688;2024-03-02T13:48:30;50.90;;;29.95;;
36923;SDS011;22841;50.252;18.688;2024-03-02T13:50:56;52.55;;;29.95;;
36923;SDS011;22841;50.252;18.688;2024-03-02T13:53:23;55.33;;;30.13;;
36923;SDS011;22841;50.252;18.688;2024-03-02T13:55:49;51.70;;;30.92;;
36923;SDS011;22841;50.252;18.688;2024-03-02T13:58:15;61.42;;;31.17;;
36923;SDS011;22841;50.252;18.688;2024-03-02T14:00:41;52.75;;;28.75;;
36923;SDS011;22841;50.252;18.688;2024-03-02T14:03:09;52.33;;;29.27;;
36923;SDS011;22841;50.252;18.688;2024-03-02T14:05:35;53.88;;;28.23;;
36923;SDS011;22841;50.252;18.688;2024-03-02T14:08:02;47.47;;;27.63;;
36923;SDS011;22841;50.252;18.688;2024-03-02T14:10:29;46.28;;;27.83;;
36923;SDS011;22841;50.252;18.688;2024-03-02T14:12:55;46.50;;;27.98;;
36923;SDS011;22841;50.252;18.688;2024-03-02T14:15:22;53.80;;;33.42;;
36923;SDS011;22841;50.252;18.688;2024-03-02T14:17:49;52.97;;;30.88;;